Check out our new BloomSky Weather System.

Active alerts


No alerts


Thunder radar  blitzortung!


Rain radar more information rain snow radar


Visit our other weather sites:

Template documentation
and downloads

And another site



Weather Underground History page Text

Daily Summary for June 10, 2017 Units:  English    Metric   Both
« Previous Day
Next Day »
Daily Weekly Monthly Yearly Custom
  High: Low: Average:
Temperature: 89.2 °F 78.3 °F 84 °F
Dew Point: 74.3 °F 70.3 °F 72.6 °F
Humidity: 82 % 55 % 69 %
Wind Speed: 11.0 mph 1.0 mph 4.2 mph
Wind Gust: 14.0 mph - -
Wind:- - SE
Pressure: 29.93 in 29.85 in -
Precipitation: 0.00 in    
Historical Graphs
 
 
Tabular Data for June 10, 2017
Time Temperature Dew Point Pressure Wind Wind Speed Wind Gust Humidity Rainfall Rate (Hourly)
08:28 88.5 °F 70.3 °F 29.90 in South 3.0 mph 3.0 mph 55 % 0.00 in
08:29 88.5 °F 70.3 °F 29.90 in SE 11.0 mph 11.0 mph 55 % 0.00 in
08:30 88.5 °F 70.9 °F 29.90 in South 5.0 mph 5.0 mph 56 % 0.00 in
08:31 88.5 °F 70.9 °F 29.90 in SSE 7.0 mph 12.0 mph 56 % 0.00 in
13:33 88.9 °F 71.1 °F 29.90 in SSE 2.0 mph 12.0 mph 56 % 0.00 in
13:38 88.9 °F 71.1 °F 29.90 in SSE 6.0 mph 7.0 mph 56 % 0.00 in
13:39 88.7 °F 71.1 °F 29.90 in East 4.0 mph 7.0 mph 56 % 0.00 in
13:44 87.6 °F 72.5 °F 29.90 in SE 5.0 mph 12.0 mph 61 % 0.00 in
13:49 87.3 °F 73.0 °F 29.89 in South 7.0 mph 12.0 mph 63 % 0.00 in
13:54 87.6 °F 72.0 °F 29.89 in SE 6.0 mph 12.0 mph 60 % 0.00 in
13:59 88.0 °F 72.3 °F 29.89 in SE 6.0 mph 11.0 mph 60 % 0.00 in
14:04 88.0 °F 72.9 °F 29.89 in ESE 3.0 mph 11.0 mph 61 % 0.00 in
14:09 88.3 °F 73.6 °F 29.89 in East 7.0 mph 11.0 mph 62 % 0.00 in
14:14 88.3 °F 73.2 °F 29.89 in SE 5.0 mph 13.0 mph 61 % 0.00 in
14:19 88.0 °F 73.8 °F 29.89 in SE 5.0 mph 13.0 mph 63 % 0.00 in
14:24 88.3 °F 74.1 °F 29.89 in East 4.0 mph 13.0 mph 63 % 0.00 in
14:29 88.5 °F 74.3 °F 29.89 in East 3.0 mph 12.0 mph 63 % 0.00 in
14:34 88.5 °F 73.8 °F 29.88 in SE 5.0 mph 12.0 mph 62 % 0.00 in
14:39 88.2 °F 73.4 °F 29.89 in SSE 6.0 mph 11.0 mph 62 % 0.00 in
14:44 88.3 °F 73.2 °F 29.88 in SSE 8.0 mph 12.0 mph 61 % 0.00 in
14:50 88.7 °F 72.5 °F 29.88 in SE 5.0 mph 12.0 mph 59 % 0.00 in
14:55 88.7 °F 73.0 °F 29.88 in ENE 5.0 mph 12.0 mph 60 % 0.00 in
15:00 89.2 °F 73.6 °F 29.88 in ESE 5.0 mph 11.0 mph 60 % 0.00 in
15:05 88.2 °F 73.0 °F 29.88 in SE 6.0 mph 11.0 mph 61 % 0.00 in
15:10 87.4 °F 73.2 °F 29.88 in SSE 4.0 mph 11.0 mph 63 % 0.00 in
15:15 86.9 °F 73.2 °F 29.88 in SE 6.0 mph 11.0 mph 64 % 0.00 in
15:20 86.9 °F 73.2 °F 29.88 in ESE 6.0 mph 12.0 mph 64 % 0.00 in
15:25 87.1 °F 73.9 °F 29.88 in East 6.0 mph 14.0 mph 65 % 0.00 in
15:30 87.4 °F 73.8 °F 29.88 in SE 8.0 mph 14.0 mph 64 % 0.00 in
15:35 87.3 °F 73.0 °F 29.87 in SE 5.0 mph 14.0 mph 63 % 0.00 in
15:40 87.1 °F 73.4 °F 29.87 in SE 5.0 mph 13.0 mph 64 % 0.00 in
15:45 87.1 °F 73.4 °F 29.87 in SSE 6.0 mph 13.0 mph 64 % 0.00 in
15:50 87.1 °F 73.9 °F 29.87 in ESE 3.0 mph 12.0 mph 65 % 0.00 in
15:55 87.1 °F 72.9 °F 29.87 in East 8.0 mph 12.0 mph 63 % 0.00 in
16:00 86.5 °F 72.5 °F 29.87 in ESE 5.0 mph 11.0 mph 63 % 0.00 in
16:05 86.5 °F 73.4 °F 29.87 in SE 7.0 mph 11.0 mph 65 % 0.00 in
16:10 86.5 °F 72.9 °F 29.86 in ESE 3.0 mph 11.0 mph 64 % 0.00 in
16:15 86.5 °F 72.9 °F 29.86 in ENE 1.0 mph 11.0 mph 64 % 0.00 in
16:20 86.5 °F 72.5 °F 29.86 in East 4.0 mph 11.0 mph 63 % 0.00 in
16:25 86.7 °F 73.0 °F 29.86 in ESE 5.0 mph 12.0 mph 64 % 0.00 in
16:30 87.3 °F 73.0 °F 29.86 in East 2.0 mph 12.0 mph 63 % 0.00 in
16:35 87.3 °F 72.7 °F 29.86 in ESE 4.0 mph 13.0 mph 62 % 0.00 in
16:40 87.3 °F 72.7 °F 29.86 in ESE 4.0 mph 13.0 mph 62 % 0.00 in
16:46 86.7 °F 72.1 °F 29.86 in SE 4.0 mph 13.0 mph 62 % 0.00 in
16:47 86.7 °F 72.1 °F 29.86 in ESE 4.0 mph 13.0 mph 62 % 0.00 in
16:52 86.2 °F 72.1 °F 29.86 in ESE 6.0 mph 9.0 mph 63 % 0.00 in
16:57 86.0 °F 72.0 °F 29.86 in East 4.0 mph 10.0 mph 63 % 0.00 in
17:02 86.0 °F 72.0 °F 29.86 in SE 4.0 mph 11.0 mph 63 % 0.00 in
17:07 86.2 °F 72.1 °F 29.86 in South 3.0 mph 11.0 mph 63 % 0.00 in
17:12 86.2 °F 72.1 °F 29.86 in SE 2.0 mph 11.0 mph 63 % 0.00 in
17:17 86.0 °F 72.3 °F 29.86 in SSE 4.0 mph 8.0 mph 64 % 0.00 in
17:22 85.8 °F 72.1 °F 29.86 in SSE 3.0 mph 9.0 mph 64 % 0.00 in
17:27 85.6 °F 72.5 °F 29.86 in SE 6.0 mph 10.0 mph 65 % 0.00 in
17:37 85.5 °F 72.9 °F 29.85 in SE 5.0 mph 13.0 mph 66 % 0.00 in
17:42 85.5 °F 73.2 °F 29.85 in ENE 8.0 mph 13.0 mph 67 % 0.00 in
17:47 85.5 °F 73.2 °F 29.85 in ESE 4.0 mph 13.0 mph 67 % 0.00 in
17:52 85.5 °F 73.8 °F 29.85 in SSE 4.0 mph 11.0 mph 68 % 0.00 in
17:57 85.3 °F 73.6 °F 29.86 in ESE 2.0 mph 11.0 mph 68 % 0.00 in
18:02 84.9 °F 74.1 °F 29.86 in East 2.0 mph 9.0 mph 70 % 0.00 in
18:07 84.6 °F 74.1 °F 29.85 in East 4.0 mph 8.0 mph 71 % 0.00 in
18:12 84.6 °F 73.8 °F 29.85 in SE 6.0 mph 8.0 mph 70 % 0.00 in
18:17 84.6 °F 73.2 °F 29.85 in SE 1.0 mph 11.0 mph 69 % 0.00 in
18:22 84.6 °F 73.2 °F 29.85 in East 7.0 mph 11.0 mph 69 % 0.00 in
18:27 84.4 °F 73.0 °F 29.85 in East 7.0 mph 11.0 mph 69 % 0.00 in
18:32 84.4 °F 73.0 °F 29.85 in SE 5.0 mph 10.0 mph 69 % 0.00 in
18:37 84.4 °F 73.0 °F 29.85 in SE 7.0 mph 10.0 mph 69 % 0.00 in
18:42 84.4 °F 73.0 °F 29.85 in SE 4.0 mph 10.0 mph 69 % 0.00 in
18:47 84.4 °F 72.7 °F 29.85 in SSE 4.0 mph 10.0 mph 68 % 0.00 in
18:52 84.0 °F 72.3 °F 29.85 in ESE 4.0 mph 10.0 mph 68 % 0.00 in
18:57 84.0 °F 72.3 °F 29.85 in ESE 2.0 mph 11.0 mph 68 % 0.00 in
19:02 84.0 °F 72.3 °F 29.85 in SE 3.0 mph 11.0 mph 68 % 0.00 in
19:07 83.8 °F 71.2 °F 29.85 in SE 5.0 mph 11.0 mph 66 % 0.00 in
19:12 84.0 °F 71.4 °F 29.85 in ESE 2.0 mph 10.0 mph 66 % 0.00 in
19:17 84.0 °F 71.4 °F 29.85 in ESE 6.0 mph 10.0 mph 66 % 0.00 in
19:22 84.0 °F 71.4 °F 29.85 in SE 5.0 mph 9.0 mph 66 % 0.00 in
19:28 84.0 °F 72.0 °F 29.86 in ESE 1.0 mph 9.0 mph 67 % 0.00 in
19:33 83.8 °F 71.8 °F 29.86 in South 4.0 mph 9.0 mph 67 % 0.00 in
19:38 83.8 °F 71.2 °F 29.86 in East 6.0 mph 11.0 mph 66 % 0.00 in
19:43 83.7 °F 71.1 °F 29.86 in SE 2.0 mph 11.0 mph 66 % 0.00 in
19:48 83.7 °F 71.1 °F 29.86 in ESE 2.0 mph 11.0 mph 66 % 0.00 in
19:53 83.5 °F 71.8 °F 29.86 in SE 4.0 mph 9.0 mph 68 % 0.00 in
19:58 83.1 °F 72.0 °F 29.86 in ESE 3.0 mph 6.0 mph 69 % 0.00 in
20:03 82.9 °F 71.8 °F 29.86 in ESE 4.0 mph 6.0 mph 69 % 0.00 in
20:08 82.8 °F 71.6 °F 29.86 in SE 3.0 mph 10.0 mph 69 % 0.00 in
20:13 82.8 °F 71.6 °F 29.86 in ESE 4.0 mph 10.0 mph 69 % 0.00 in
20:18 82.6 °F 71.4 °F 29.86 in ESE 4.0 mph 10.0 mph 69 % 0.00 in
20:23 82.4 °F 71.6 °F 29.86 in SE 4.0 mph 9.0 mph 70 % 0.00 in
20:28 82.4 °F 72.0 °F 29.86 in ESE 4.0 mph 9.0 mph 71 % 0.00 in
20:33 82.2 °F 72.7 °F 29.86 in SE 5.0 mph 9.0 mph 73 % 0.00 in
20:38 82.0 °F 72.9 °F 29.86 in SE 4.0 mph 13.0 mph 74 % 0.00 in
20:43 81.7 °F 73.0 °F 29.86 in ESE 6.0 mph 13.0 mph 75 % 0.00 in
20:48 81.3 °F 73.0 °F 29.86 in ESE 3.0 mph 13.0 mph 76 % 0.00 in
20:53 81.1 °F 72.9 °F 29.87 in ESE 6.0 mph 13.0 mph 76 % 0.00 in
20:58 81.0 °F 73.0 °F 29.87 in SE 7.0 mph 13.0 mph 77 % 0.00 in
21:03 80.8 °F 72.9 °F 29.87 in East 6.0 mph 13.0 mph 77 % 0.00 in
21:08 80.6 °F 73.0 °F 29.87 in SE 5.0 mph 11.0 mph 78 % 0.00 in
21:18 80.2 °F 72.7 °F 29.88 in SE 3.0 mph 12.0 mph 78 % 0.00 in
21:23 80.2 °F 73.0 °F 29.88 in SSE 3.0 mph 12.0 mph 79 % 0.00 in
21:28 80.1 °F 73.0 °F 29.88 in ESE 3.0 mph 11.0 mph 79 % 0.00 in
21:33 79.9 °F 72.9 °F 29.88 in SE 5.0 mph 11.0 mph 79 % 0.00 in
21:38 79.9 °F 73.2 °F 29.88 in SSE 2.0 mph 10.0 mph 80 % 0.00 in
21:43 79.5 °F 72.9 °F 29.89 in ESE 5.0 mph 10.0 mph 80 % 0.00 in
21:48 79.5 °F 72.9 °F 29.89 in SSE 3.0 mph 8.0 mph 80 % 0.00 in
21:53 79.3 °F 73.0 °F 29.89 in East 1.0 mph 8.0 mph 81 % 0.00 in
21:58 79.3 °F 73.0 °F 29.90 in SE 2.0 mph 8.0 mph 81 % 0.00 in
22:03 79.3 °F 73.0 °F 29.90 in SE 5.0 mph 8.0 mph 81 % 0.00 in
22:08 79.2 °F 72.9 °F 29.91 in ESE 4.0 mph 8.0 mph 81 % 0.00 in
22:13 79.2 °F 72.9 °F 29.91 in ESE 4.0 mph 8.0 mph 81 % 0.00 in
22:18 79.2 °F 72.9 °F 29.91 in SSW 4.0 mph 8.0 mph 81 % 0.00 in
22:23 79.2 °F 72.9 °F 29.91 in ESE 4.0 mph 8.0 mph 81 % 0.00 in
22:28 79.2 °F 72.5 °F 29.91 in SSE 3.0 mph 9.0 mph 80 % 0.00 in
22:29 79.2 °F 72.9 °F 29.91 in South 3.0 mph 9.0 mph 81 % 0.00 in
22:34 79.0 °F 72.7 °F 29.91 in SE 2.0 mph 9.0 mph 81 % 0.00 in
22:39 79.0 °F 72.7 °F 29.91 in SSE 1.0 mph 9.0 mph 81 % 0.00 in
22:44 79.0 °F 72.7 °F 29.92 in ESE 2.0 mph 7.0 mph 81 % 0.00 in
22:49 78.8 °F 72.5 °F 29.92 in ESE 4.0 mph 6.0 mph 81 % 0.00 in
22:54 78.6 °F 72.3 °F 29.92 in SSE 2.0 mph 5.0 mph 81 % 0.00 in
22:59 78.8 °F 72.5 °F 29.93 in ESE 5.0 mph 5.0 mph 81 % 0.00 in
23:04 78.8 °F 72.5 °F 29.93 in ESE 3.0 mph 10.0 mph 81 % 0.00 in
23:09 78.8 °F 72.5 °F 29.93 in ESE 3.0 mph 10.0 mph 81 % 0.00 in
23:14 78.6 °F 72.3 °F 29.93 in SE 3.0 mph 10.0 mph 81 % 0.00 in
23:19 78.6 °F 72.3 °F 29.93 in SSE 6.0 mph 8.0 mph 81 % 0.00 in
23:24 78.6 °F 72.3 °F 29.93 in SSE 1.0 mph 9.0 mph 81 % 0.00 in
23:29 78.6 °F 72.3 °F 29.93 in SSE 3.0 mph 9.0 mph 81 % 0.00 in
23:34 78.6 °F 72.3 °F 29.93 in SSE 2.0 mph 9.0 mph 81 % 0.00 in
23:39 78.6 °F 72.3 °F 29.93 in South 2.0 mph 9.0 mph 81 % 0.00 in
23:44 78.4 °F 72.5 °F 29.93 in SSE 2.0 mph 9.0 mph 82 % 0.00 in
23:49 78.4 °F 72.5 °F 29.93 in SSE 3.0 mph 7.0 mph 82 % 0.00 in
23:54 78.3 °F 72.3 °F 29.93 in SE 1.0 mph 6.0 mph 82 % 0.00 in
Spring, Texas: Villages of Bridgestone
Compliments of Weather Underground - 2.25 mb

Script developed by  Jim McMurry - jmcmurry@mwt.net Adapted for the template by  Wim van der Kuil - Leuven-Template.eu

You find our weather info also at:

UK Metoffice

WeatherCloud

Weather Underground

Mid-South Weather Network

AWEKAS

Citizen Weather Observer Program (CWOP)

HAMweather, WeatherForYou, PWS Weather

Equipment we use:

Weather-station
Davis Vantage Vue

Weather-program
Meteohub

Weather-server
Debian 7.9 x86 (Guest)

Provider
DreamHost

Davis Vantage Vue

Meteohub

Debian 7.9 x86 (Guest)

DreamHost